This is the latest recevied weather packets stored in our database for station/object KC8BSD. If no packets are shown the sender has not sent any weather packets the latest 1 day(s).
| Time | Temp. | Humidity | Pressure | Rain* | Wind** | Luminosity | Snow |
|---|---|---|---|---|---|---|---|
| 1778029302 | 10.56° C | 50% | 1009.5 hPa | 0 mm | 0.89 m/s, 36° | 0 W/m² | - |
| 1778028999 | 10.56° C | 51% | 1009.5 hPa | 0 mm | 0.45 m/s, 51° | 0 W/m² | - |
| 1778028697 | 10.56° C | 50% | 1009.7 hPa | 0 mm | 0.89 m/s, 252° | 0 W/m² | - |
| 1778028393 | 10.56° C | 50% | 1009.4 hPa | 0 mm | 0.45 m/s, 333° | 0 W/m² | - |
| 1778028090 | 10.56° C | 50% | 1009.5 hPa | 0 mm | 0 m/s | 0 W/m² | - |
| 1778027786 | 10.56° C | 49% | 1009.7 hPa | 0 mm | 0.45 m/s, 272° | 0 W/m² | - |
| 1778027483 | 10.56° C | 50% | 1009.6 hPa | 0 mm | 0.45 m/s, 38° | 0 W/m² | - |
| 1778027179 | 10.56° C | 48% | 1009.6 hPa | 0 mm | 0.45 m/s, 354° | 0 W/m² | - |
| 1778026875 | 10.56° C | 47% | 1009.6 hPa | 0 mm | 0.89 m/s, 51° | 2 W/m² | - |
| 1778026571 | 10.56° C | 47% | 1009.7 hPa | 0 mm | 0.89 m/s, 59° | 1 W/m² | - |
| 1778026268 | 10.56° C | 47% | 1009.4 hPa | 0 mm | 1.34 m/s, 274° | 3 W/m² | - |
| 1778025966 | 11.11° C | 48% | 1009.5 hPa | 0 mm | 0.89 m/s, 238° | 5 W/m² | - |
| 1778025663 | 11.11° C | 48% | 1009.5 hPa | 0 mm | 0.45 m/s, 319° | 6 W/m² | - |
| 1778025361 | 11.11° C | 49% | 1009.4 hPa | 0 mm | 0.45 m/s, 249° | 9 W/m² | - |
| 1778025058 | 11.11° C | 47% | 1009.5 hPa | 0 mm | 0.45 m/s, 39° | 11 W/m² | - |
| 1778024755 | 11.11° C | 48% | 1009.3 hPa | 0 mm | 0.89 m/s, 102° | 16 W/m² | - |
| 1778024451 | 11.11° C | 47% | 1009 hPa | 0 mm | 0.45 m/s, 254° | 22 W/m² | - |
| 1778024149 | 11.67° C | 46% | 1008.7 hPa | 0 mm | 0 m/s | 19 W/m² | - |
| 1778023846 | 11.67° C | 45% | 1009.2 hPa | 0 mm | 1.34 m/s, 22° | 26 W/m² | - |
| 1778023544 | 11.67° C | 45% | 1008.8 hPa | 0 mm | 0.89 m/s, 54° | 39 W/m² | - |
| 1778023241 | 11.67° C | 45% | 1008.9 hPa | 0 mm | 0.89 m/s, 1° | 27 W/m² | - |
| 1778022938 | 11.67° C | 46% | 1008.9 hPa | 0 mm | 0 m/s | 35 W/m² | - |
| 1778022637 | 11.67° C | 46% | 1008.7 hPa | 0 mm | 0.89 m/s, 72° | 38 W/m² | - |
| 1778022333 | 11.67° C | 46% | 1008.9 hPa | 0 mm | 0.89 m/s, 275° | 40 W/m² | - |
| 1778022030 | 11.67° C | 51% | 1008.7 hPa | 0 mm | 0.45 m/s, 18° | 44 W/m² | - |
* Rain latest hour (hover to see other rain measurements)
** Current wind speed in m/s (hover to see current wind gust speed)